WARM SPRINGS (USACE) (WRS)

Elevation: 440' · RUSSIAN R basin · Operator: US Army Corps of Engineers

Provisional data, subject to change.
Query executed Friday at 14:29:39   clock

Select a sensor type for a plot of data.
Note: Reservoir Flows are daily averages.

Earlier

Date RES ELE    STORAGE    RES CHG    TOC STO    ABV TOC    OUTFLOW    INFLOW    PPT INC    TEMP MN    TEMP MX    EVP PAN   
 FEET   AF   AF   AF   AF   CFS   CFS   INCHES   DEG F   DEG F   INCHES  
10/30/2014 404.24 141237 -146 245000 -103763 77 8 0.00 13 25 0.06
10/31/2014 404.19 141146 -91 245000 -103854 77 34 0.22 11 20 0.05
11/01/2014 404.08 140945 -201 245000 -104055 77 -20 0.00 6 20 0.06
11/02/2014 403.99 140782 -163 245000 -104218 77 2 0.00 8 22 0.06
11/03/2014 403.88 140582 -200 245000 -104418 77 -20 0.00 8 21 0.05
11/04/2014 403.79 140419 -163 245000 -104581 77 -1 0.00 6 24 0.06
11/05/2014 403.69 140237 -182 245000 -104763 84 -4 0.01 8 25 0.06
11/06/2014 403.59 140056 -181 245000 -104944 89 2 0.00 10 25 0.06
11/07/2014 403.49 139875 -181 245000 -105125 89 2 0.00 8 24 0.05
11/08/2014 403.39 139694 -181 245000 -105306 89 2 0.00 9 27 0.06
11/09/2014 403.30 139531 -163 245000 -105469 89 11 0.01 9 27 0.06
11/10/2014 403.19 139333 -198 245000 -105667 89 -7 0.00 9 26 0.06
11/11/2014 403.09 139152 -181 245000 -105848 89 -0 0.00 13 16 0.03
11/12/2014 402.98 138954 -198 245000 -106046 89 -8 0.00 9 19 0.05
11/13/2014 402.94 138882 -72 245000 -106118 89 55 0.49 11 18 0.04
11/14/2014 402.83 138684 -198 245000 -106316 88 -8 0.02 7 20 0.05
11/15/2014 402.72 138486 -198 245000 -106514 89 -8 0.00 7 20 0.04
11/16/2014 402.61 138288 -198 245000 -106712 89 -8 0.00 5 18 0.04
11/17/2014 402.52 138127 -161 245000 -106873 89 12 0.00 3 20 0.05
11/18/2014 402.40 137911 -216 245000 -107089 89 -17 0.00 3 18 0.04
11/19/2014 402.35 137822 -89 245000 -107178 89 46 0.52 9 12 0.02
11/20/2014 402.31 137750 -72 245000 -107250 90 54 0.66 8 13 0.01
11/21/2014 402.22 137589 -- 245000 -- 89 10 0.06 8 14 0.03
11/22/2014 402.21 137571 -- 245000 -- 89 83 0.52 8 19 0.04
11/23/2014 402.12 137410 -- 245000 -107590 89 11 0.00 6 18 0.04
11/24/2014 402.02 137231 -179 245000 -107769 88 1 0.00 4 19 0.04
11/25/2014 401.92 137053 -178 245000 -107947 88 1 0.00 6 20 0.04
11/26/2014 401.82 136874 -179 245000 -108126 -- -- -- -- -- --
11/27/2014 401.74 136732 -142 245000 -108268 -- -- -- -- -- --
11/28/2014 -- -- -- -- -- -- -- -- -- -- --

Later | Latest

Warning! This data is preliminary and subject to revision.

Show WRS Map | Plot WRS Data | 1 Month WRS Data | Real-Time WRS Data | WRS Info